USTRANSCOM 7541


KNGU
Norfolk Naval Station (Chambers Field)
Norfolk, Virginia, US
LERT
Naval Station Rota
Rota, , ES

Route Details

Aircraft Information
Primary: Boeing 757-200SF
Backup: Not Available
Route Data
Distance: 3288nm
Sched. Duration: 7h 00m
Avg. Duration: 6h 73m (-27m)
Times Flown: 2
Recm'd Route: ATLIC AR9 ZIBUT N3960 4055N N4050 N4040 4035N FRS LENSI T25 GUNTI UZ21 BUSEN A44 ESP A5 VFA W1 PIREN
Planned Altitude: 31,000ft
Origin Wx: KNGU 270003Z 12008KT 2SM BR BKN005 OVC020 13/12 A2967 RMK AO2 SFC VIS 5 T01280117 $
Dest. Wx: LERT 270000Z 32007KT CAVOK 13/09 Q1023 NOSIG
Notes: USTRANSCOM CONTRACT FLIGHT | PAYLOAD RESTRICTED | ETOPS

Financial History
Total Freight: 110,242lbs
Average Load: 55,121lbs/flt
Fuel Used: 120,296lbs
Avg. Fuel Used: 60,148lbs/flt
Fuel Expense: $114,281
Avg. Fuel Expense: $57,141
Avg. Fuel Cost: $0.95/lbs
Total Gross Income: $288,834
Pilot Pay: $378
Total Expenses: $31,298
Total Revenue: $140,624
Average Revenue: $144,417.02